Terminal Aerodrome Forecast
Issued by NWS

Home | Current Version | Previous Version | Text Only | Print | Product List | Glossary On
Versions: 1 2 3 4 5 6 7 8 9 10 11 12 13 14 15 16 17 18 19 20 21 22
000
FTUS44 KLIX 222100 AAA
TAFMCB
TAF AMD
KMCB 222116Z 2221/2318 19008KT P6SM SCT015 BKN025
     FM230300 20006KT 5SM BR BKN008
      TEMPO 2308/2312 1SM BR OVC003
     FM231300 15004KT 5SM BR BKN015
     FM231500 15007KT P6SM VCTS OVC015CB=

USA.gov is the U.S. government's official web portal to all federal, state and local government web resources and services.